createdAt,value
2019-05-09T02:35:51.654Z,8.20
2019-05-09T03:52:08.139Z,5.90
2019-05-09T03:59:48.945Z,6.40
2019-05-09T04:10:18.823Z,6.30
2019-05-09T04:16:19.678Z,7.00
2019-05-09T04:48:59.260Z,7.10
2019-05-09T05:00:48.422Z,5.40
2019-05-09T05:07:10.271Z,5.30
2019-05-09T05:20:39.978Z,4.60
2019-05-09T05:38:20.873Z,3.70
2019-05-09T05:44:09.926Z,3.80
2019-05-09T05:50:13.825Z,3.40
2019-05-09T05:56:20.603Z,3.80
2019-05-09T06:01:31.814Z,3.60
2019-05-09T06:08:41.503Z,4.10
2019-05-09T06:13:54.282Z,3.50
2019-05-09T06:19:11.776Z,3.30
2019-05-09T06:24:44.822Z,3.60
2019-05-09T06:30:51.608Z,4.00
2019-05-09T06:35:51.911Z,3.70
2019-05-09T06:41:13.861Z,4.70
2019-05-09T06:46:54.256Z,3.90
2019-05-09T06:51:57.818Z,3.60
2019-05-09T06:57:01.834Z,3.70
2019-05-09T07:02:12.599Z,4.20
2019-05-09T07:07:18.183Z,3.60
2019-05-09T07:12:43.086Z,3.70
2019-05-09T07:17:42.527Z,3.20
2019-05-09T07:23:01.535Z,3.40
2019-05-09T07:27:59.647Z,3.20
2019-05-09T07:33:09.956Z,3.20
2019-05-09T07:38:08.989Z,3.10
2019-05-09T07:43:11.464Z,3.00
2019-05-09T07:48:40.927Z,3.70
2019-05-09T07:53:32.491Z,4.00
2019-05-09T07:58:43.666Z,3.90
2019-05-09T08:03:45.210Z,3.00
2019-05-09T08:08:49.905Z,2.70
2019-05-09T08:13:48.300Z,2.80
2019-05-09T08:18:43.921Z,2.60
2019-05-09T08:24:39.656Z,3.50
2019-05-09T08:29:33.550Z,2.50
2019-05-09T08:35:09.095Z,2.80
2019-05-09T08:40:38.812Z,2.40
2019-05-09T08:45:38.718Z,2.30
2019-05-09T08:50:41.698Z,2.40
2019-05-09T08:55:42.717Z,2.60
2019-05-09T09:00:49.714Z,2.20
2019-05-09T09:05:44.770Z,2.20
2019-05-09T09:10:44.077Z,3.50
2019-05-09T09:16:15.577Z,2.30
2019-05-09T09:21:13.225Z,2.00
2019-05-09T09:26:18.140Z,1.50
2019-05-09T09:31:12.772Z,1.80
2019-05-09T09:36:09.277Z,1.90
2019-05-09T09:40:59.998Z,1.20
2019-05-09T09:47:12.233Z,1.90
2019-05-09T09:52:13.999Z,1.40
2019-05-09T09:57:49.003Z,1.70
2019-05-09T10:03:48.139Z,1.90
2019-05-09T10:08:44.282Z,1.30
2019-05-09T10:15:29.261Z,1.00
2019-05-09T10:20:23.354Z,1.10
2019-05-09T10:31:29.922Z,1.10
2019-05-09T10:40:29.504Z,1.30
2019-05-09T10:47:08.955Z,2.10
2019-05-09T10:52:01.924Z,0.80
2019-05-09T10:56:52.076Z,1.40
2019-05-09T11:01:43.834Z,2.80
2019-05-09T11:07:01.494Z,1.20
2019-05-09T11:11:51.126Z,1.50
2019-05-09T11:21:59.915Z,2.50
2019-05-09T11:28:05.835Z,2.00
2019-05-09T11:33:00.303Z,1.60
2019-05-09T11:37:51.021Z,1.90
2019-05-09T11:42:43.759Z,2.30
2019-05-09T11:49:02.986Z,2.30
2019-05-09T11:53:50.129Z,2.00
2019-05-09T11:58:42.623Z,2.10
2019-05-09T12:06:02.895Z,1.90
2019-05-09T12:10:48.099Z,2.90
2019-05-09T12:16:04.529Z,4.40
2019-05-09T12:20:54.479Z,4.30
2019-05-09T12:25:49.298Z,3.10
2019-05-09T12:30:42.102Z,3.30
2019-05-09T12:35:43.379Z,2.60
2019-05-09T12:40:39.582Z,1.70
2019-05-09T12:45:31.819Z,2.20
2019-05-09T12:50:25.750Z,2.10
2019-05-09T12:55:19.843Z,2.00
2019-05-09T13:00:12.434Z,1.80
2019-05-09T13:05:04.380Z,2.10
2019-05-09T13:09:59.740Z,1.60
2019-05-09T13:14:52.368Z,1.60
2019-05-09T13:19:48.317Z,2.00
2019-05-09T13:24:48.068Z,1.90
2019-05-09T13:29:39.107Z,1.90
2019-05-09T13:35:14.327Z,2.50
2019-05-09T13:42:20.186Z,2.20
2019-05-09T13:47:17.664Z,2.30
2019-05-09T13:54:29.208Z,2.90
2019-05-09T13:59:23.242Z,2.80
2019-05-09T14:04:40.195Z,2.50
2019-05-09T14:09:29.931Z,3.00
2019-05-09T14:14:21.716Z,2.00
2019-05-09T14:19:39.466Z,2.50
2019-05-09T14:24:36.852Z,2.40
2019-05-09T14:29:32.144Z,2.30
2019-05-09T14:34:23.209Z,2.30
2019-05-09T14:39:19.123Z,1.90
2019-05-09T14:44:10.950Z,1.90
2019-05-09T14:49:03.501Z,2.30
2019-05-09T14:53:58.704Z,2.10
2019-05-09T14:59:01.400Z,1.90
2019-05-09T15:03:53.633Z,1.80
2019-05-09T15:08:48.675Z,1.50
2019-05-09T15:13:40.354Z,1.40
2019-05-09T15:18:41.295Z,1.00
2019-05-09T15:23:32.450Z,1.80
2019-05-09T15:28:33.769Z,1.50
2019-05-09T15:34:42.791Z,1.80
2019-05-09T15:39:38.784Z,1.70
2019-05-09T15:45:13.158Z,1.60
2019-05-09T15:50:16.411Z,1.10
2019-05-09T15:55:11.763Z,1.10
2019-05-09T16:00:03.627Z,1.50
2019-05-09T16:04:58.125Z,0.90
2019-05-09T16:09:50.452Z,0.80
2019-05-09T16:14:43.802Z,0.70
2019-05-09T16:19:38.188Z,1.10
2019-05-09T16:24:30.009Z,0.90
2019-05-09T16:29:40.148Z,1.30
2019-05-09T16:34:30.236Z,0.90
2019-05-09T16:39:21.521Z,1.50
2019-05-09T16:44:19.289Z,1.60
2019-05-09T16:49:12.377Z,1.30
2019-05-09T16:54:22.820Z,1.00
2019-05-09T16:59:31.207Z,1.10
2019-05-09T17:04:39.184Z,1.20
2019-05-09T17:09:29.061Z,1.20
2019-05-09T17:14:22.953Z,0.90
2019-05-09T17:19:28.035Z,1.10
2019-05-09T17:44:18.320Z,3.00
2019-05-09T17:49:17.268Z,1.90
2019-05-09T17:54:14.885Z,1.50
2019-05-09T17:59:18.144Z,2.30
2019-05-09T18:04:12.753Z,1.60
2019-05-09T18:09:19.482Z,2.20
2019-05-09T18:14:31.752Z,2.00
2019-05-09T18:19:30.765Z,9.60
